sensor_id;sensor_type;location;lat;lon;timestamp;temperature;humidity
8979;DHT22;4524;51.364;5.448;2023-06-14T00:00:22;19.60;99.90
8979;DHT22;4524;51.364;5.448;2023-06-14T00:02:51;19.60;99.90
8979;DHT22;4524;51.364;5.448;2023-06-14T00:05:23;19.60;99.90
8979;DHT22;4524;51.364;5.448;2023-06-14T00:07:50;19.50;99.90
8979;DHT22;4524;51.364;5.448;2023-06-14T00:10:20;19.50;99.90
8979;DHT22;4524;51.364;5.448;2023-06-14T00:12:48;19.50;99.90
8979;DHT22;4524;51.364;5.448;2023-06-14T00:15:16;19.40;99.90
8979;DHT22;4524;51.364;5.448;2023-06-14T00:17:46;19.40;99.90
8979;DHT22;4524;51.364;5.448;2023-06-14T00:20:14;19.40;99.90
8979;DHT22;4524;51.364;5.448;2023-06-14T00:22:43;19.40;99.90
8979;DHT22;4524;51.364;5.448;2023-06-14T00:25:12;19.30;99.90
8979;DHT22;4524;51.364;5.448;2023-06-14T00:27:55;19.30;99.90
8979;DHT22;4524;51.364;5.448;2023-06-14T00:30:23;19.20;99.90
8979;DHT22;4524;51.364;5.448;2023-06-14T00:32:53;19.10;99.90
8979;DHT22;4524;51.364;5.448;2023-06-14T00:35:21;19.10;99.90
8979;DHT22;4524;51.364;5.448;2023-06-14T00:37:49;19.00;99.90
8979;DHT22;4524;51.364;5.448;2023-06-14T00:40:17;19.00;99.90
8979;DHT22;4524;51.364;5.448;2023-06-14T00:42:45;19.00;99.90
8979;DHT22;4524;51.364;5.448;2023-06-14T00:45:13;19.00;99.90
8979;DHT22;4524;51.364;5.448;2023-06-14T00:47:42;18.90;99.90
8979;DHT22;4524;51.364;5.448;2023-06-14T00:50:12;18.90;99.90
8979;DHT22;4524;51.364;5.448;2023-06-14T00:52:40;18.90;99.90
8979;DHT22;4524;51.364;5.448;2023-06-14T00:55:09;18.90;99.90
8979;DHT22;4524;51.364;5.448;2023-06-14T00:57:37;18.90;99.90
8979;DHT22;4524;51.364;5.448;2023-06-14T01:00:08;18.90;99.90
8979;DHT22;4524;51.364;5.448;2023-06-14T01:02:37;18.80;99.90
8979;DHT22;4524;51.364;5.448;2023-06-14T01:05:09;18.80;99.90
8979;DHT22;4524;51.364;5.448;2023-06-14T01:08:05;18.80;99.90
8979;DHT22;4524;51.364;5.448;2023-06-14T01:10:41;18.80;99.90
8979;DHT22;4524;51.364;5.448;2023-06-14T01:13:20;18.80;99.90
8979;DHT22;4524;51.364;5.448;2023-06-14T01:15:50;18.70;99.90
8979;DHT22;4524;51.364;5.448;2023-06-14T01:18:21;18.70;99.90
8979;DHT22;4524;51.364;5.448;2023-06-14T01:20:50;18.70;99.90
8979;DHT22;4524;51.364;5.448;2023-06-14T01:23:25;18.60;99.90
8979;DHT22;4524;51.364;5.448;2023-06-14T01:25:59;18.60;99.90
8979;DHT22;4524;51.364;5.448;2023-06-14T01:28:31;18.70;99.90
8979;DHT22;4524;51.364;5.448;2023-06-14T01:31:02;18.60;99.90
8979;DHT22;4524;51.364;5.448;2023-06-14T01:33:33;18.60;99.90
8979;DHT22;4524;51.364;5.448;2023-06-14T01:36:05;18.50;99.90
8979;DHT22;4524;51.364;5.448;2023-06-14T01:38:37;18.50;99.90
8979;DHT22;4524;51.364;5.448;2023-06-14T01:41:06;18.50;99.90
8979;DHT22;4524;51.364;5.448;2023-06-14T01:43:34;18.40;99.90
8979;DHT22;4524;51.364;5.448;2023-06-14T01:46:04;18.30;99.90
8979;DHT22;4524;51.364;5.448;2023-06-14T01:48:34;18.30;99.90
8979;DHT22;4524;51.364;5.448;2023-06-14T01:51:03;18.30;99.90
8979;DHT22;4524;51.364;5.448;2023-06-14T01:53:31;18.20;99.90
8979;DHT22;4524;51.364;5.448;2023-06-14T01:56:19;18.20;99.90
8979;DHT22;4524;51.364;5.448;2023-06-14T01:58:48;18.10;99.90
8979;DHT22;4524;51.364;5.448;2023-06-14T02:01:16;18.10;99.90
8979;DHT22;4524;51.364;5.448;2023-06-14T02:03:45;18.10;99.90
8979;DHT22;4524;51.364;5.448;2023-06-14T02:06:15;18.00;99.90
8979;DHT22;4524;51.364;5.448;2023-06-14T02:08:43;18.00;99.90
8979;DHT22;4524;51.364;5.448;2023-06-14T02:11:11;17.90;99.90
8979;DHT22;4524;51.364;5.448;2023-06-14T02:13:40;17.90;99.90
8979;DHT22;4524;51.364;5.448;2023-06-14T02:16:08;17.90;99.90
8979;DHT22;4524;51.364;5.448;2023-06-14T02:18:37;17.90;99.90
8979;DHT22;4524;51.364;5.448;2023-06-14T02:21:05;17.80;99.90
8979;DHT22;4524;51.364;5.448;2023-06-14T02:23:33;17.70;99.90
8979;DHT22;4524;51.364;5.448;2023-06-14T02:26:01;17.70;99.90
8979;DHT22;4524;51.364;5.448;2023-06-14T02:28:30;17.70;99.90
8979;DHT22;4524;51.364;5.448;2023-06-14T02:31:00;17.70;99.90
8979;DHT22;4524;51.364;5.448;2023-06-14T02:33:28;17.60;99.90
8979;DHT22;4524;51.364;5.448;2023-06-14T02:35:57;17.70;99.90
8979;DHT22;4524;51.364;5.448;2023-06-14T02:38:25;17.60;99.90
8979;DHT22;4524;51.364;5.448;2023-06-14T02:40:53;17.60;99.90
8979;DHT22;4524;51.364;5.448;2023-06-14T02:43:21;17.50;99.90
8979;DHT22;4524;51.364;5.448;2023-06-14T02:45:49;17.50;99.90
8979;DHT22;4524;51.364;5.448;2023-06-14T02:48:19;17.50;99.90
8979;DHT22;4524;51.364;5.448;2023-06-14T02:50:47;17.50;99.90
8979;DHT22;4524;51.364;5.448;2023-06-14T02:53:15;17.40;99.90
8979;DHT22;4524;51.364;5.448;2023-06-14T02:55:44;17.40;99.90
8979;DHT22;4524;51.364;5.448;2023-06-14T02:58:14;17.30;99.90
8979;DHT22;4524;51.364;5.448;2023-06-14T03:00:43;17.40;99.90
8979;DHT22;4524;51.364;5.448;2023-06-14T03:03:12;17.30;99.90
8979;DHT22;4524;51.364;5.448;2023-06-14T03:05:51;17.30;99.90
8979;DHT22;4524;51.364;5.448;2023-06-14T03:08:24;17.30;99.90
8979;DHT22;4524;51.364;5.448;2023-06-14T03:10:55;17.40;99.90
8979;DHT22;4524;51.364;5.448;2023-06-14T03:13:25;17.50;99.90
8979;DHT22;4524;51.364;5.448;2023-06-14T03:15:54;17.50;99.90
8979;DHT22;4524;51.364;5.448;2023-06-14T03:18:23;17.40;99.90
8979;DHT22;4524;51.364;5.448;2023-06-14T03:20:56;17.40;99.90
8979;DHT22;4524;51.364;5.448;2023-06-14T03:23:27;17.40;99.90
8979;DHT22;4524;51.364;5.448;2023-06-14T03:25:55;17.30;99.90
8979;DHT22;4524;51.364;5.448;2023-06-14T03:28:24;17.30;99.90
8979;DHT22;4524;51.364;5.448;2023-06-14T03:30:53;17.20;99.90
8979;DHT22;4524;51.364;5.448;2023-06-14T03:33:23;17.10;99.90
8979;DHT22;4524;51.364;5.448;2023-06-14T03:35:52;17.20;99.90
8979;DHT22;4524;51.364;5.448;2023-06-14T03:38:22;17.10;99.90
8979;DHT22;4524;51.364;5.448;2023-06-14T03:40:50;17.10;99.90
8979;DHT22;4524;51.364;5.448;2023-06-14T03:43:19;17.20;99.90
8979;DHT22;4524;51.364;5.448;2023-06-14T03:45:47;17.10;99.90
8979;DHT22;4524;51.364;5.448;2023-06-14T03:48:16;17.20;99.90
8979;DHT22;4524;51.364;5.448;2023-06-14T03:50:44;17.20;99.90
8979;DHT22;4524;51.364;5.448;2023-06-14T03:53:12;17.20;99.90
8979;DHT22;4524;51.364;5.448;2023-06-14T03:55:46;17.20;99.90
8979;DHT22;4524;51.364;5.448;2023-06-14T03:58:20;17.20;99.90
8979;DHT22;4524;51.364;5.448;2023-06-14T04:00:48;17.40;99.90
8979;DHT22;4524;51.364;5.448;2023-06-14T04:03:16;17.70;99.90
8979;DHT22;4524;51.364;5.448;2023-06-14T04:05:44;17.60;99.90
8979;DHT22;4524;51.364;5.448;2023-06-14T04:08:17;17.60;99.90
8979;DHT22;4524;51.364;5.448;2023-06-14T04:10:47;17.80;99.90
8979;DHT22;4524;51.364;5.448;2023-06-14T04:13:15;17.90;99.90
8979;DHT22;4524;51.364;5.448;2023-06-14T04:15:44;18.00;99.90
8979;DHT22;4524;51.364;5.448;2023-06-14T04:18:17;18.20;99.90
8979;DHT22;4524;51.364;5.448;2023-06-14T04:21:04;18.50;99.90
8979;DHT22;4524;51.364;5.448;2023-06-14T04:23:32;18.50;99.90
8979;DHT22;4524;51.364;5.448;2023-06-14T04:26:03;18.10;99.90
8979;DHT22;4524;51.364;5.448;2023-06-14T04:28:31;18.20;99.90
8979;DHT22;4524;51.364;5.448;2023-06-14T04:31:04;18.40;99.90
8979;DHT22;4524;51.364;5.448;2023-06-14T04:33:32;18.30;99.90
8979;DHT22;4524;51.364;5.448;2023-06-14T04:36:01;18.50;99.90
8979;DHT22;4524;51.364;5.448;2023-06-14T04:38:30;18.30;99.90
8979;DHT22;4524;51.364;5.448;2023-06-14T04:41:02;18.30;99.90
8979;DHT22;4524;51.364;5.448;2023-06-14T04:43:31;18.40;99.90
8979;DHT22;4524;51.364;5.448;2023-06-14T04:46:06;18.40;99.90
8979;DHT22;4524;51.364;5.448;2023-06-14T04:48:39;18.10;99.90
8979;DHT22;4524;51.364;5.448;2023-06-14T04:51:09;18.30;99.90
8979;DHT22;4524;51.364;5.448;2023-06-14T04:53:37;18.30;99.90
8979;DHT22;4524;51.364;5.448;2023-06-14T04:56:07;18.10;99.90
8979;DHT22;4524;51.364;5.448;2023-06-14T04:58:36;18.30;99.90
8979;DHT22;4524;51.364;5.448;2023-06-14T05:01:05;18.20;99.90
8979;DHT22;4524;51.364;5.448;2023-06-14T05:03:36;18.20;99.90
8979;DHT22;4524;51.364;5.448;2023-06-14T05:06:04;18.50;99.90
8979;DHT22;4524;51.364;5.448;2023-06-14T05:08:33;18.80;99.90
8979;DHT22;4524;51.364;5.448;2023-06-14T05:11:02;18.80;99.90
8979;DHT22;4524;51.364;5.448;2023-06-14T05:13:31;19.60;99.90
8979;DHT22;4524;51.364;5.448;2023-06-14T05:16:01;19.10;99.90
8979;DHT22;4524;51.364;5.448;2023-06-14T05:18:50;19.20;99.90
8979;DHT22;4524;51.364;5.448;2023-06-14T05:21:18;19.40;99.90
8979;DHT22;4524;51.364;5.448;2023-06-14T05:23:46;19.80;99.90
8979;DHT22;4524;51.364;5.448;2023-06-14T05:26:14;19.60;99.90
8979;DHT22;4524;51.364;5.448;2023-06-14T05:28:44;19.30;99.90
8979;DHT22;4524;51.364;5.448;2023-06-14T05:31:11;19.20;99.90
8979;DHT22;4524;51.364;5.448;2023-06-14T05:33:39;18.90;99.90
8979;DHT22;4524;51.364;5.448;2023-06-14T05:36:07;18.90;99.90
8979;DHT22;4524;51.364;5.448;2023-06-14T05:38:35;19.00;99.90
8979;DHT22;4524;51.364;5.448;2023-06-14T05:41:03;19.10;99.90
8979;DHT22;4524;51.364;5.448;2023-06-14T05:43:31;19.10;99.90
8979;DHT22;4524;51.364;5.448;2023-06-14T05:46:01;19.30;99.90
8979;DHT22;4524;51.364;5.448;2023-06-14T05:48:29;19.40;99.90
8979;DHT22;4524;51.364;5.448;2023-06-14T05:50:59;19.50;99.90
8979;DHT22;4524;51.364;5.448;2023-06-14T05:53:27;19.70;99.90
8979;DHT22;4524;51.364;5.448;2023-06-14T05:55:55;19.90;99.90
8979;DHT22;4524;51.364;5.448;2023-06-14T05:58:23;19.70;99.90
8979;DHT22;4524;51.364;5.448;2023-06-14T06:00:51;19.30;99.90
8979;DHT22;4524;51.364;5.448;2023-06-14T06:03:21;19.10;99.90
8979;DHT22;4524;51.364;5.448;2023-06-14T06:05:50;19.30;99.90
8979;DHT22;4524;51.364;5.448;2023-06-14T06:08:38;19.30;99.90
8979;DHT22;4524;51.364;5.448;2023-06-14T06:11:07;19.30;99.90
8979;DHT22;4524;51.364;5.448;2023-06-14T06:13:35;19.30;99.90
8979;DHT22;4524;51.364;5.448;2023-06-14T06:16:05;19.40;99.90
8979;DHT22;4524;51.364;5.448;2023-06-14T06:18:34;19.50;99.90
8979;DHT22;4524;51.364;5.448;2023-06-14T06:21:04;19.60;99.90
8979;DHT22;4524;51.364;5.448;2023-06-14T06:23:32;19.80;99.90
8979;DHT22;4524;51.364;5.448;2023-06-14T06:26:00;20.00;99.90
8979;DHT22;4524;51.364;5.448;2023-06-14T06:28:28;20.00;99.90
8979;DHT22;4524;51.364;5.448;2023-06-14T06:30:56;20.00;99.90
8979;DHT22;4524;51.364;5.448;2023-06-14T06:33:24;20.20;99.90
8979;DHT22;4524;51.364;5.448;2023-06-14T06:35:54;20.40;99.90
8979;DHT22;4524;51.364;5.448;2023-06-14T06:38:22;20.40;99.90
8979;DHT22;4524;51.364;5.448;2023-06-14T06:40:50;20.50;99.90
8979;DHT22;4524;51.364;5.448;2023-06-14T06:43:18;20.30;99.90
8979;DHT22;4524;51.364;5.448;2023-06-14T06:45:47;20.40;99.90
8979;DHT22;4524;51.364;5.448;2023-06-14T06:48:15;20.60;99.90
8979;DHT22;4524;51.364;5.448;2023-06-14T06:50:44;20.80;99.90
8979;DHT22;4524;51.364;5.448;2023-06-14T06:53:14;20.90;99.90
8979;DHT22;4524;51.364;5.448;2023-06-14T06:55:49;20.90;99.90
8979;DHT22;4524;51.364;5.448;2023-06-14T06:58:17;20.90;99.90
8979;DHT22;4524;51.364;5.448;2023-06-14T07:00:45;21.00;99.90
8979;DHT22;4524;51.364;5.448;2023-06-14T07:03:13;21.00;99.90
8979;DHT22;4524;51.364;5.448;2023-06-14T07:05:41;21.20;99.90
8979;DHT22;4524;51.364;5.448;2023-06-14T07:08:09;21.30;99.90
8979;DHT22;4524;51.364;5.448;2023-06-14T07:10:39;21.50;99.90
8979;DHT22;4524;51.364;5.448;2023-06-14T07:13:07;21.50;99.90
8979;DHT22;4524;51.364;5.448;2023-06-14T07:15:36;21.60;99.90
8979;DHT22;4524;51.364;5.448;2023-06-14T07:18:04;21.70;99.90
8979;DHT22;4524;51.364;5.448;2023-06-14T07:20:34;21.80;99.90
8979;DHT22;4524;51.364;5.448;2023-06-14T07:23:04;21.70;99.90
8979;DHT22;4524;51.364;5.448;2023-06-14T07:25:33;21.40;99.90
8979;DHT22;4524;51.364;5.448;2023-06-14T07:28:02;21.50;99.90
8979;DHT22;4524;51.364;5.448;2023-06-14T07:30:30;21.60;99.90
8979;DHT22;4524;51.364;5.448;2023-06-14T07:32:59;21.60;99.90
8979;DHT22;4524;51.364;5.448;2023-06-14T07:35:27;21.60;99.90
8979;DHT22;4524;51.364;5.448;2023-06-14T07:37:55;21.70;99.90
8979;DHT22;4524;51.364;5.448;2023-06-14T07:40:23;21.80;99.90
8979;DHT22;4524;51.364;5.448;2023-06-14T07:42:51;22.00;99.90
8979;DHT22;4524;51.364;5.448;2023-06-14T07:45:22;22.10;99.90
8979;DHT22;4524;51.364;5.448;2023-06-14T07:47:50;22.20;99.90
8979;DHT22;4524;51.364;5.448;2023-06-14T07:50:19;22.20;99.90
8979;DHT22;4524;51.364;5.448;2023-06-14T07:52:47;22.30;99.90
8979;DHT22;4524;51.364;5.448;2023-06-14T07:55:16;22.40;99.90
8979;DHT22;4524;51.364;5.448;2023-06-14T07:57:44;22.40;99.90
8979;DHT22;4524;51.364;5.448;2023-06-14T08:00:13;22.40;99.90
8979;DHT22;4524;51.364;5.448;2023-06-14T08:02:44;22.50;99.90
8979;DHT22;4524;51.364;5.448;2023-06-14T08:05:12;22.60;99.90
8979;DHT22;4524;51.364;5.448;2023-06-14T08:07:41;22.70;99.90
8979;DHT22;4524;51.364;5.448;2023-06-14T08:10:09;22.70;99.90
8979;DHT22;4524;51.364;5.448;2023-06-14T08:12:37;22.60;99.90
8979;DHT22;4524;51.364;5.448;2023-06-14T08:15:06;22.50;99.90
8979;DHT22;4524;51.364;5.448;2023-06-14T08:17:42;22.40;99.90
8979;DHT22;4524;51.364;5.448;2023-06-14T08:20:12;22.50;99.90
8979;DHT22;4524;51.364;5.448;2023-06-14T08:22:42;22.50;99.90
8979;DHT22;4524;51.364;5.448;2023-06-14T08:25:13;22.70;99.90
8979;DHT22;4524;51.364;5.448;2023-06-14T08:27:42;22.80;99.90
8979;DHT22;4524;51.364;5.448;2023-06-14T08:30:11;22.90;99.90
8979;DHT22;4524;51.364;5.448;2023-06-14T08:32:39;22.90;99.90
8979;DHT22;4524;51.364;5.448;2023-06-14T08:35:08;23.10;99.90
8979;DHT22;4524;51.364;5.448;2023-06-14T08:37:39;23.20;99.90
8979;DHT22;4524;51.364;5.448;2023-06-14T08:40:18;23.20;99.90
8979;DHT22;4524;51.364;5.448;2023-06-14T08:42:50;23.30;99.90
8979;DHT22;4524;51.364;5.448;2023-06-14T08:45:19;23.20;99.90
8979;DHT22;4524;51.364;5.448;2023-06-14T08:47:51;23.10;99.90
8979;DHT22;4524;51.364;5.448;2023-06-14T08:50:25;23.00;99.90
8979;DHT22;4524;51.364;5.448;2023-06-14T08:53:00;23.00;99.90
8979;DHT22;4524;51.364;5.448;2023-06-14T08:55:31;23.10;99.90
8979;DHT22;4524;51.364;5.448;2023-06-14T08:58:04;23.20;99.90
8979;DHT22;4524;51.364;5.448;2023-06-14T09:00:33;23.20;99.90
8979;DHT22;4524;51.364;5.448;2023-06-14T09:03:01;23.40;99.90
8979;DHT22;4524;51.364;5.448;2023-06-14T09:05:30;23.60;99.90
8979;DHT22;4524;51.364;5.448;2023-06-14T09:08:00;23.50;99.90
8979;DHT22;4524;51.364;5.448;2023-06-14T09:10:32;23.50;99.90
8979;DHT22;4524;51.364;5.448;2023-06-14T09:13:01;23.60;99.90
8979;DHT22;4524;51.364;5.448;2023-06-14T09:15:30;23.70;99.90
8979;DHT22;4524;51.364;5.448;2023-06-14T09:17:58;23.80;99.90
8979;DHT22;4524;51.364;5.448;2023-06-14T09:20:30;23.90;99.90
8979;DHT22;4524;51.364;5.448;2023-06-14T09:23:00;24.00;99.90
8979;DHT22;4524;51.364;5.448;2023-06-14T09:25:29;24.00;99.90
8979;DHT22;4524;51.364;5.448;2023-06-14T09:28:06;23.80;99.90
8979;DHT22;4524;51.364;5.448;2023-06-14T09:30:37;24.00;99.90
8979;DHT22;4524;51.364;5.448;2023-06-14T09:33:05;24.00;99.90
8979;DHT22;4524;51.364;5.448;2023-06-14T09:35:33;24.20;99.90
8979;DHT22;4524;51.364;5.448;2023-06-14T09:38:03;24.30;99.90
8979;DHT22;4524;51.364;5.448;2023-06-14T09:40:34;24.70;99.90
8979;DHT22;4524;51.364;5.448;2023-06-14T09:43:06;24.80;99.90
8979;DHT22;4524;51.364;5.448;2023-06-14T09:45:35;24.80;99.90
8979;DHT22;4524;51.364;5.448;2023-06-14T09:48:04;24.70;99.90
8979;DHT22;4524;51.364;5.448;2023-06-14T09:50:34;24.80;99.90
8979;DHT22;4524;51.364;5.448;2023-06-14T09:53:06;24.80;99.90
8979;DHT22;4524;51.364;5.448;2023-06-14T09:55:36;24.90;99.90
8979;DHT22;4524;51.364;5.448;2023-06-14T09:58:06;24.70;99.90
8979;DHT22;4524;51.364;5.448;2023-06-14T10:00:36;24.60;99.90
8979;DHT22;4524;51.364;5.448;2023-06-14T10:03:09;24.80;99.90
8979;DHT22;4524;51.364;5.448;2023-06-14T10:05:42;25.20;99.90
8979;DHT22;4524;51.364;5.448;2023-06-14T10:08:14;25.60;99.90
8979;DHT22;4524;51.364;5.448;2023-06-14T10:10:46;25.60;99.90
8979;DHT22;4524;51.364;5.448;2023-06-14T10:13:15;25.90;99.90
8979;DHT22;4524;51.364;5.448;2023-06-14T10:16:08;25.70;99.90
8979;DHT22;4524;51.364;5.448;2023-06-14T10:18:44;25.50;99.90
8979;DHT22;4524;51.364;5.448;2023-06-14T10:21:18;25.40;99.90
8979;DHT22;4524;51.364;5.448;2023-06-14T10:23:50;25.30;99.90
8979;DHT22;4524;51.364;5.448;2023-06-14T10:26:20;25.40;99.90
8979;DHT22;4524;51.364;5.448;2023-06-14T10:28:59;25.20;99.90
8979;DHT22;4524;51.364;5.448;2023-06-14T10:31:42;25.70;99.90
8979;DHT22;4524;51.364;5.448;2023-06-14T10:34:11;25.60;99.90
8979;DHT22;4524;51.364;5.448;2023-06-14T10:36:42;25.60;99.90
8979;DHT22;4524;51.364;5.448;2023-06-14T10:39:15;25.90;99.90
8979;DHT22;4524;51.364;5.448;2023-06-14T10:41:52;26.20;99.90
8979;DHT22;4524;51.364;5.448;2023-06-14T10:44:43;26.10;99.90
8979;DHT22;4524;51.364;5.448;2023-06-14T10:47:32;25.90;99.90
8979;DHT22;4524;51.364;5.448;2023-06-14T10:50:06;26.20;99.90
8979;DHT22;4524;51.364;5.448;2023-06-14T10:52:38;25.90;99.90
8979;DHT22;4524;51.364;5.448;2023-06-14T10:55:34;26.30;99.90
8979;DHT22;4524;51.364;5.448;2023-06-14T10:58:02;26.50;99.90
8979;DHT22;4524;51.364;5.448;2023-06-14T11:00:33;26.40;99.90
8979;DHT22;4524;51.364;5.448;2023-06-14T11:03:35;26.30;99.90
8979;DHT22;4524;51.364;5.448;2023-06-14T11:06:14;26.70;99.90
8979;DHT22;4524;51.364;5.448;2023-06-14T11:09:13;26.50;99.90
8979;DHT22;4524;51.364;5.448;2023-06-14T11:12:10;26.60;99.90
8979;DHT22;4524;51.364;5.448;2023-06-14T11:14:38;26.70;99.90
8979;DHT22;4524;51.364;5.448;2023-06-14T11:17:07;26.90;99.90
8979;DHT22;4524;51.364;5.448;2023-06-14T11:19:35;26.90;99.90
8979;DHT22;4524;51.364;5.448;2023-06-14T11:22:03;26.60;99.90
8979;DHT22;4524;51.364;5.448;2023-06-14T11:24:32;26.20;99.90
8979;DHT22;4524;51.364;5.448;2023-06-14T11:27:01;26.00;99.90
8979;DHT22;4524;51.364;5.448;2023-06-14T11:29:30;26.10;99.90
8979;DHT22;4524;51.364;5.448;2023-06-14T11:31:58;26.00;99.90
8979;DHT22;4524;51.364;5.448;2023-06-14T11:34:27;26.10;99.90
8979;DHT22;4524;51.364;5.448;2023-06-14T11:36:55;25.90;99.90
8979;DHT22;4524;51.364;5.448;2023-06-14T11:39:25;25.90;99.90
8979;DHT22;4524;51.364;5.448;2023-06-14T11:41:53;26.00;99.90
8979;DHT22;4524;51.364;5.448;2023-06-14T11:44:22;26.30;99.90
8979;DHT22;4524;51.364;5.448;2023-06-14T11:46:52;26.00;99.90
8979;DHT22;4524;51.364;5.448;2023-06-14T11:49:21;25.90;99.90
8979;DHT22;4524;51.364;5.448;2023-06-14T11:51:49;25.80;99.90
8979;DHT22;4524;51.364;5.448;2023-06-14T11:54:17;25.70;99.90
8979;DHT22;4524;51.364;5.448;2023-06-14T11:56:45;25.70;99.90
8979;DHT22;4524;51.364;5.448;2023-06-14T11:59:14;26.20;99.90
8979;DHT22;4524;51.364;5.448;2023-06-14T12:01:43;26.10;99.90
8979;DHT22;4524;51.364;5.448;2023-06-14T12:04:13;26.00;99.90
8979;DHT22;4524;51.364;5.448;2023-06-14T12:06:41;25.80;99.90
8979;DHT22;4524;51.364;5.448;2023-06-14T12:09:10;25.90;99.90
8979;DHT22;4524;51.364;5.448;2023-06-14T12:11:43;25.80;99.90
8979;DHT22;4524;51.364;5.448;2023-06-14T12:14:11;25.70;99.90
8979;DHT22;4524;51.364;5.448;2023-06-14T12:16:40;25.80;99.90
8979;DHT22;4524;51.364;5.448;2023-06-14T12:19:29;25.70;99.90
8979;DHT22;4524;51.364;5.448;2023-06-14T12:21:59;25.80;99.90
8979;DHT22;4524;51.364;5.448;2023-06-14T12:24:32;25.80;99.90
8979;DHT22;4524;51.364;5.448;2023-06-14T12:27:00;25.60;99.90
8979;DHT22;4524;51.364;5.448;2023-06-14T12:29:29;25.80;99.90
8979;DHT22;4524;51.364;5.448;2023-06-14T12:31:58;25.80;99.90
8979;DHT22;4524;51.364;5.448;2023-06-14T12:34:26;25.70;99.90
8979;DHT22;4524;51.364;5.448;2023-06-14T12:36:56;25.80;99.90
8979;DHT22;4524;51.364;5.448;2023-06-14T12:39:24;25.80;99.90
8979;DHT22;4524;51.364;5.448;2023-06-14T12:41:52;25.60;99.90
8979;DHT22;4524;51.364;5.448;2023-06-14T12:44:21;25.80;99.90
8979;DHT22;4524;51.364;5.448;2023-06-14T12:46:49;25.80;99.90
8979;DHT22;4524;51.364;5.448;2023-06-14T12:49:18;25.60;99.90
8979;DHT22;4524;51.364;5.448;2023-06-14T12:51:46;25.80;99.90
8979;DHT22;4524;51.364;5.448;2023-06-14T12:54:16;26.00;99.90
8979;DHT22;4524;51.364;5.448;2023-06-14T12:57:01;25.70;99.90
8979;DHT22;4524;51.364;5.448;2023-06-14T12:59:30;25.80;99.90
8979;DHT22;4524;51.364;5.448;2023-06-14T13:02:11;25.90;99.90
8979;DHT22;4524;51.364;5.448;2023-06-14T13:04:39;25.70;99.90
8979;DHT22;4524;51.364;5.448;2023-06-14T13:07:25;25.70;99.90
8979;DHT22;4524;51.364;5.448;2023-06-14T13:09:55;25.80;99.90
8979;DHT22;4524;51.364;5.448;2023-06-14T13:12:23;25.80;99.90
8979;DHT22;4524;51.364;5.448;2023-06-14T13:14:51;25.60;99.90
8979;DHT22;4524;51.364;5.448;2023-06-14T13:17:19;25.50;99.90
8979;DHT22;4524;51.364;5.448;2023-06-14T13:19:47;25.50;99.90
8979;DHT22;4524;51.364;5.448;2023-06-14T13:22:15;25.70;99.90
8979;DHT22;4524;51.364;5.448;2023-06-14T13:24:43;26.00;99.90
8979;DHT22;4524;51.364;5.448;2023-06-14T13:27:14;25.80;99.90
8979;DHT22;4524;51.364;5.448;2023-06-14T13:29:42;25.80;99.90
8979;DHT22;4524;51.364;5.448;2023-06-14T13:32:10;25.90;99.90
8979;DHT22;4524;51.364;5.448;2023-06-14T13:34:38;26.00;99.90
8979;DHT22;4524;51.364;5.448;2023-06-14T13:37:06;25.90;99.90
8979;DHT22;4524;51.364;5.448;2023-06-14T13:39:34;26.00;99.90
8979;DHT22;4524;51.364;5.448;2023-06-14T13:42:04;26.10;99.90
8979;DHT22;4524;51.364;5.448;2023-06-14T13:44:33;26.00;99.90
8979;DHT22;4524;51.364;5.448;2023-06-14T13:47:01;26.00;99.90
8979;DHT22;4524;51.364;5.448;2023-06-14T13:49:29;26.10;99.90
8979;DHT22;4524;51.364;5.448;2023-06-14T13:52:00;26.00;99.90
8979;DHT22;4524;51.364;5.448;2023-06-14T13:54:29;26.10;99.90
8979;DHT22;4524;51.364;5.448;2023-06-14T13:56:57;26.10;99.90
8979;DHT22;4524;51.364;5.448;2023-06-14T13:59:25;26.10;99.90
8979;DHT22;4524;51.364;5.448;2023-06-14T14:01:54;26.00;99.90
8979;DHT22;4524;51.364;5.448;2023-06-14T14:04:23;25.90;99.90
8979;DHT22;4524;51.364;5.448;2023-06-14T14:06:51;26.00;99.90
8979;DHT22;4524;51.364;5.448;2023-06-14T14:09:19;26.10;99.90
8979;DHT22;4524;51.364;5.448;2023-06-14T14:12:07;26.10;99.90
8979;DHT22;4524;51.364;5.448;2023-06-14T14:14:35;26.10;99.90
8979;DHT22;4524;51.364;5.448;2023-06-14T14:17:04;26.20;99.90
8979;DHT22;4524;51.364;5.448;2023-06-14T14:19:33;26.30;99.90
8979;DHT22;4524;51.364;5.448;2023-06-14T14:22:02;26.00;99.90
8979;DHT22;4524;51.364;5.448;2023-06-14T14:24:30;26.10;99.90
8979;DHT22;4524;51.364;5.448;2023-06-14T14:26:58;26.10;99.90
8979;DHT22;4524;51.364;5.448;2023-06-14T14:29:27;26.10;99.90
8979;DHT22;4524;51.364;5.448;2023-06-14T14:31:55;26.10;99.90
8979;DHT22;4524;51.364;5.448;2023-06-14T14:34:25;25.90;99.90
8979;DHT22;4524;51.364;5.448;2023-06-14T14:36:53;25.80;99.90
8979;DHT22;4524;51.364;5.448;2023-06-14T14:39:21;26.00;99.90
8979;DHT22;4524;51.364;5.448;2023-06-14T14:41:50;26.10;99.90
8979;DHT22;4524;51.364;5.448;2023-06-14T14:44:18;26.00;99.90
8979;DHT22;4524;51.364;5.448;2023-06-14T14:46:46;26.00;99.90
8979;DHT22;4524;51.364;5.448;2023-06-14T14:49:14;26.00;99.90
8979;DHT22;4524;51.364;5.448;2023-06-14T14:51:43;26.00;99.90
8979;DHT22;4524;51.364;5.448;2023-06-14T14:54:11;26.20;99.90
8979;DHT22;4524;51.364;5.448;2023-06-14T14:56:39;26.10;99.90
8979;DHT22;4524;51.364;5.448;2023-06-14T14:59:07;26.10;99.90
8979;DHT22;4524;51.364;5.448;2023-06-14T15:01:35;26.10;99.90
8979;DHT22;4524;51.364;5.448;2023-06-14T15:04:03;26.20;99.90
8979;DHT22;4524;51.364;5.448;2023-06-14T15:06:31;26.10;99.90
8979;DHT22;4524;51.364;5.448;2023-06-14T15:09:06;26.20;99.90
8979;DHT22;4524;51.364;5.448;2023-06-14T15:11:34;26.20;99.90
8979;DHT22;4524;51.364;5.448;2023-06-14T15:14:02;26.10;99.90
8979;DHT22;4524;51.364;5.448;2023-06-14T15:16:30;26.00;99.90
8979;DHT22;4524;51.364;5.448;2023-06-14T15:18:58;26.10;99.90
8979;DHT22;4524;51.364;5.448;2023-06-14T15:21:26;26.20;99.90
8979;DHT22;4524;51.364;5.448;2023-06-14T15:23:54;26.30;99.90
8979;DHT22;4524;51.364;5.448;2023-06-14T15:26:23;26.30;99.90
8979;DHT22;4524;51.364;5.448;2023-06-14T15:28:52;26.10;99.90
8979;DHT22;4524;51.364;5.448;2023-06-14T15:31:39;26.20;99.90
8979;DHT22;4524;51.364;5.448;2023-06-14T15:34:07;26.20;99.90
8979;DHT22;4524;51.364;5.448;2023-06-14T15:36:35;26.30;99.90
8979;DHT22;4524;51.364;5.448;2023-06-14T15:39:03;26.30;99.90
8979;DHT22;4524;51.364;5.448;2023-06-14T15:41:33;26.30;99.90
8979;DHT22;4524;51.364;5.448;2023-06-14T15:44:01;26.10;99.90
8979;DHT22;4524;51.364;5.448;2023-06-14T15:46:29;26.00;99.90
8979;DHT22;4524;51.364;5.448;2023-06-14T15:48:57;26.00;99.90
8979;DHT22;4524;51.364;5.448;2023-06-14T15:51:25;25.90;99.90
8979;DHT22;4524;51.364;5.448;2023-06-14T15:53:53;26.00;99.90
8979;DHT22;4524;51.364;5.448;2023-06-14T15:56:21;25.90;99.90
8979;DHT22;4524;51.364;5.448;2023-06-14T15:58:50;26.00;99.90
8979;DHT22;4524;51.364;5.448;2023-06-14T16:01:18;26.00;99.90
8979;DHT22;4524;51.364;5.448;2023-06-14T16:03:46;26.00;99.90
8979;DHT22;4524;51.364;5.448;2023-06-14T16:06:14;26.10;99.90
8979;DHT22;4524;51.364;5.448;2023-06-14T16:08:43;26.00;99.90
8979;DHT22;4524;51.364;5.448;2023-06-14T16:11:12;26.00;99.90
8979;DHT22;4524;51.364;5.448;2023-06-14T16:13:41;26.00;99.90
8979;DHT22;4524;51.364;5.448;2023-06-14T16:16:13;25.90;99.90
8979;DHT22;4524;51.364;5.448;2023-06-14T16:18:41;25.90;99.90
8979;DHT22;4524;51.364;5.448;2023-06-14T16:21:09;25.90;99.90